sensor_id;sensor_type;location;lat;lon;timestamp;P1;durP1;ratioP1;P2;durP2;ratioP2
76725;SDS011;65651;53.154;17.916;2023-06-24T00:01:51;5.70;;;3.50;;
76725;SDS011;65651;53.154;17.916;2023-06-24T00:04:18;5.30;;;3.40;;
76725;SDS011;65651;53.154;17.916;2023-06-24T00:06:47;4.00;;;3.10;;
76725;SDS011;65651;53.154;17.916;2023-06-24T00:09:15;5.00;;;3.70;;
76725;SDS011;65651;53.154;17.916;2023-06-24T00:11:42;5.70;;;3.60;;
76725;SDS011;65651;53.154;17.916;2023-06-24T00:14:09;6.60;;;3.80;;
76725;SDS011;65651;53.154;17.916;2023-06-24T00:16:38;4.90;;;3.40;;
76725;SDS011;65651;53.154;17.916;2023-06-24T00:19:08;5.20;;;3.70;;
76725;SDS011;65651;53.154;17.916;2023-06-24T00:21:36;5.10;;;3.40;;
76725;SDS011;65651;53.154;17.916;2023-06-24T00:24:04;4.00;;;3.60;;
76725;SDS011;65651;53.154;17.916;2023-06-24T00:26:32;7.10;;;4.20;;
76725;SDS011;65651;53.154;17.916;2023-06-24T00:28:59;6.90;;;3.60;;
76725;SDS011;65651;53.154;17.916;2023-06-24T00:31:26;6.10;;;3.50;;
76725;SDS011;65651;53.154;17.916;2023-06-24T00:33:54;4.10;;;3.20;;
76725;SDS011;65651;53.154;17.916;2023-06-24T00:36:23;4.00;;;3.10;;
76725;SDS011;65651;53.154;17.916;2023-06-24T00:38:53;7.00;;;4.30;;
76725;SDS011;65651;53.154;17.916;2023-06-24T00:41:21;4.90;;;4.30;;
76725;SDS011;65651;53.154;17.916;2023-06-24T00:43:49;7.30;;;4.50;;
76725;SDS011;65651;53.154;17.916;2023-06-24T00:46:17;5.00;;;4.20;;
76725;SDS011;65651;53.154;17.916;2023-06-24T00:48:46;5.90;;;4.10;;
76725;SDS011;65651;53.154;17.916;2023-06-24T00:51:13;7.80;;;4.00;;
76725;SDS011;65651;53.154;17.916;2023-06-24T00:53:41;5.60;;;4.00;;
76725;SDS011;65651;53.154;17.916;2023-06-24T00:56:08;6.10;;;4.10;;
76725;SDS011;65651;53.154;17.916;2023-06-24T00:58:36;4.80;;;3.90;;
76725;SDS011;65651;53.154;17.916;2023-06-24T01:01:05;4.90;;;4.00;;
76725;SDS011;65651;53.154;17.916;2023-06-24T01:03:35;6.00;;;4.20;;
76725;SDS011;65651;53.154;17.916;2023-06-24T01:06:04;5.20;;;4.40;;
76725;SDS011;65651;53.154;17.916;2023-06-24T01:08:31;6.10;;;4.10;;
76725;SDS011;65651;53.154;17.916;2023-06-24T01:10:59;5.30;;;3.90;;
76725;SDS011;65651;53.154;17.916;2023-06-24T01:13:27;9.40;;;4.90;;
76725;SDS011;65651;53.154;17.916;2023-06-24T01:15:54;6.60;;;3.90;;
76725;SDS011;65651;53.154;17.916;2023-06-24T01:18:26;7.00;;;3.20;;
76725;SDS011;65651;53.154;17.916;2023-06-24T01:35:00;5.60;;;3.80;;
76725;SDS011;65651;53.154;17.916;2023-06-24T01:42:56;4.70;;;4.00;;
76725;SDS011;65651;53.154;17.916;2023-06-24T01:45:26;7.40;;;4.10;;
76725;SDS011;65651;53.154;17.916;2023-06-24T01:48:00;7.50;;;4.30;;
76725;SDS011;65651;53.154;17.916;2023-06-24T01:50:32;5.70;;;3.70;;
76725;SDS011;65651;53.154;17.916;2023-06-24T01:53:03;5.30;;;4.00;;
76725;SDS011;65651;53.154;17.916;2023-06-24T01:55:33;8.30;;;4.10;;
76725;SDS011;65651;53.154;17.916;2023-06-24T01:58:04;4.80;;;4.00;;
76725;SDS011;65651;53.154;17.916;2023-06-24T02:00:34;7.50;;;4.10;;
76725;SDS011;65651;53.154;17.916;2023-06-24T02:03:04;6.30;;;4.00;;
76725;SDS011;65651;53.154;17.916;2023-06-24T02:05:32;5.40;;;4.50;;
76725;SDS011;65651;53.154;17.916;2023-06-24T02:08:02;8.00;;;4.50;;
76725;SDS011;65651;53.154;17.916;2023-06-24T02:10:35;6.90;;;4.70;;
76725;SDS011;65651;53.154;17.916;2023-06-24T02:13:05;7.00;;;5.30;;
76725;SDS011;65651;53.154;17.916;2023-06-24T02:15:36;6.70;;;4.70;;
76725;SDS011;65651;53.154;17.916;2023-06-24T02:18:06;6.80;;;4.70;;
76725;SDS011;65651;53.154;17.916;2023-06-24T02:20:36;9.90;;;4.80;;
76725;SDS011;65651;53.154;17.916;2023-06-24T02:23:06;4.80;;;4.30;;
76725;SDS011;65651;53.154;17.916;2023-06-24T02:25:36;6.30;;;4.40;;
76725;SDS011;65651;53.154;17.916;2023-06-24T02:28:08;5.70;;;3.90;;
76725;SDS011;65651;53.154;17.916;2023-06-24T02:30:37;5.40;;;4.20;;
76725;SDS011;65651;53.154;17.916;2023-06-24T02:33:05;7.60;;;4.50;;
76725;SDS011;65651;53.154;17.916;2023-06-24T02:35:35;7.30;;;4.30;;
76725;SDS011;65651;53.154;17.916;2023-06-24T02:38:03;8.50;;;4.00;;
76725;SDS011;65651;53.154;17.916;2023-06-24T02:40:31;9.50;;;4.10;;
76725;SDS011;65651;53.154;17.916;2023-06-24T02:42:59;5.00;;;4.20;;
76725;SDS011;65651;53.154;17.916;2023-06-24T02:45:28;7.60;;;4.30;;
76725;SDS011;65651;53.154;17.916;2023-06-24T02:47:56;7.50;;;4.80;;
76725;SDS011;65651;53.154;17.916;2023-06-24T02:50:25;6.10;;;4.10;;
76725;SDS011;65651;53.154;17.916;2023-06-24T02:52:54;7.10;;;4.40;;
76725;SDS011;65651;53.154;17.916;2023-06-24T02:55:25;5.30;;;4.20;;
76725;SDS011;65651;53.154;17.916;2023-06-24T02:58:00;6.90;;;4.60;;
76725;SDS011;65651;53.154;17.916;2023-06-24T03:00:41;5.90;;;4.50;;
76725;SDS011;65651;53.154;17.916;2023-06-24T03:03:09;4.20;;;3.80;;
76725;SDS011;65651;53.154;17.916;2023-06-24T03:05:56;6.40;;;3.60;;
76725;SDS011;65651;53.154;17.916;2023-06-24T03:08:24;5.20;;;4.00;;
76725;SDS011;65651;53.154;17.916;2023-06-24T03:10:55;5.50;;;3.80;;
76725;SDS011;65651;53.154;17.916;2023-06-24T03:13:25;7.10;;;3.90;;
76725;SDS011;65651;53.154;17.916;2023-06-24T03:16:13;6.20;;;4.30;;
76725;SDS011;65651;53.154;17.916;2023-06-24T03:18:46;5.70;;;4.20;;
76725;SDS011;65651;53.154;17.916;2023-06-24T03:21:14;6.10;;;4.40;;
76725;SDS011;65651;53.154;17.916;2023-06-24T03:23:41;5.00;;;3.40;;
76725;SDS011;65651;53.154;17.916;2023-06-24T03:26:10;5.70;;;4.10;;
76725;SDS011;65651;53.154;17.916;2023-06-24T03:28:41;6.90;;;4.20;;
76725;SDS011;65651;53.154;17.916;2023-06-24T03:31:14;6.40;;;4.20;;
76725;SDS011;65651;53.154;17.916;2023-06-24T03:33:45;5.00;;;3.90;;
76725;SDS011;65651;53.154;17.916;2023-06-24T03:36:17;6.40;;;4.10;;
76725;SDS011;65651;53.154;17.916;2023-06-24T03:38:47;5.00;;;4.40;;
76725;SDS011;65651;53.154;17.916;2023-06-24T03:41:14;7.00;;;3.80;;
76725;SDS011;65651;53.154;17.916;2023-06-24T03:43:41;10.30;;;4.60;;
76725;SDS011;65651;53.154;17.916;2023-06-24T03:46:09;4.00;;;3.40;;
76725;SDS011;65651;53.154;17.916;2023-06-24T03:48:36;6.50;;;4.50;;
76725;SDS011;65651;53.154;17.916;2023-06-24T03:51:03;6.10;;;4.50;;
76725;SDS011;65651;53.154;17.916;2023-06-24T03:53:31;6.70;;;4.70;;
76725;SDS011;65651;53.154;17.916;2023-06-24T03:56:00;6.30;;;4.50;;
76725;SDS011;65651;53.154;17.916;2023-06-24T03:58:28;5.10;;;4.10;;
76725;SDS011;65651;53.154;17.916;2023-06-24T04:00:56;4.80;;;3.70;;
76725;SDS011;65651;53.154;17.916;2023-06-24T04:03:26;5.10;;;3.90;;
76725;SDS011;65651;53.154;17.916;2023-06-24T04:05:54;9.40;;;5.20;;
76725;SDS011;65651;53.154;17.916;2023-06-24T04:08:22;5.80;;;3.90;;
76725;SDS011;65651;53.154;17.916;2023-06-24T04:10:52;5.70;;;4.40;;
76725;SDS011;65651;53.154;17.916;2023-06-24T04:13:19;6.80;;;4.40;;
76725;SDS011;65651;53.154;17.916;2023-06-24T04:15:47;8.00;;;4.60;;
76725;SDS011;65651;53.154;17.916;2023-06-24T04:18:14;7.30;;;4.70;;
76725;SDS011;65651;53.154;17.916;2023-06-24T04:20:43;5.00;;;4.00;;
76725;SDS011;65651;53.154;17.916;2023-06-24T04:23:10;7.80;;;4.40;;
76725;SDS011;65651;53.154;17.916;2023-06-24T04:25:41;5.90;;;4.80;;
76725;SDS011;65651;53.154;17.916;2023-06-24T04:28:10;5.80;;;4.80;;
76725;SDS011;65651;53.154;17.916;2023-06-24T04:30:38;6.20;;;4.00;;
76725;SDS011;65651;53.154;17.916;2023-06-24T04:33:07;6.00;;;4.00;;
76725;SDS011;65651;53.154;17.916;2023-06-24T04:35:35;7.70;;;4.60;;
76725;SDS011;65651;53.154;17.916;2023-06-24T04:38:02;7.00;;;4.70;;
76725;SDS011;65651;53.154;17.916;2023-06-24T04:40:30;6.10;;;4.60;;
76725;SDS011;65651;53.154;17.916;2023-06-24T04:42:57;6.00;;;4.20;;
76725;SDS011;65651;53.154;17.916;2023-06-24T04:45:25;4.60;;;3.90;;
76725;SDS011;65651;53.154;17.916;2023-06-24T04:47:53;6.40;;;4.50;;
76725;SDS011;65651;53.154;17.916;2023-06-24T04:50:20;4.80;;;3.90;;
76725;SDS011;65651;53.154;17.916;2023-06-24T04:52:54;8.40;;;4.50;;
76725;SDS011;65651;53.154;17.916;2023-06-24T04:55:26;5.70;;;4.10;;
76725;SDS011;65651;53.154;17.916;2023-06-24T04:57:53;6.70;;;4.50;;
76725;SDS011;65651;53.154;17.916;2023-06-24T05:00:21;6.60;;;4.00;;
76725;SDS011;65651;53.154;17.916;2023-06-24T05:02:52;5.70;;;3.40;;
76725;SDS011;65651;53.154;17.916;2023-06-24T05:05:20;8.40;;;3.80;;
76725;SDS011;65651;53.154;17.916;2023-06-24T05:07:48;7.50;;;4.10;;
76725;SDS011;65651;53.154;17.916;2023-06-24T05:10:16;5.80;;;3.30;;
76725;SDS011;65651;53.154;17.916;2023-06-24T05:12:44;5.20;;;3.30;;
76725;SDS011;65651;53.154;17.916;2023-06-24T05:15:11;5.60;;;3.70;;
76725;SDS011;65651;53.154;17.916;2023-06-24T05:17:39;6.20;;;3.90;;
76725;SDS011;65651;53.154;17.916;2023-06-24T05:20:07;5.00;;;3.70;;
76725;SDS011;65651;53.154;17.916;2023-06-24T05:22:35;7.00;;;4.10;;
76725;SDS011;65651;53.154;17.916;2023-06-24T05:25:03;4.70;;;2.80;;
76725;SDS011;65651;53.154;17.916;2023-06-24T05:27:31;5.60;;;3.40;;
76725;SDS011;65651;53.154;17.916;2023-06-24T05:29:59;5.40;;;3.10;;
76725;SDS011;65651;53.154;17.916;2023-06-24T05:32:26;4.70;;;3.10;;
76725;SDS011;65651;53.154;17.916;2023-06-24T05:34:53;4.70;;;2.70;;
76725;SDS011;65651;53.154;17.916;2023-06-24T05:37:20;4.00;;;3.50;;
76725;SDS011;65651;53.154;17.916;2023-06-24T05:39:48;5.00;;;2.80;;
76725;SDS011;65651;53.154;17.916;2023-06-24T05:42:15;4.40;;;3.10;;
76725;SDS011;65651;53.154;17.916;2023-06-24T05:44:43;6.20;;;3.00;;
76725;SDS011;65651;53.154;17.916;2023-06-24T05:47:11;3.60;;;2.90;;
76725;SDS011;65651;53.154;17.916;2023-06-24T05:49:38;3.00;;;2.50;;
76725;SDS011;65651;53.154;17.916;2023-06-24T05:52:06;3.90;;;2.60;;
76725;SDS011;65651;53.154;17.916;2023-06-24T05:54:33;4.10;;;2.20;;
76725;SDS011;65651;53.154;17.916;2023-06-24T05:57:01;3.20;;;2.00;;
76725;SDS011;65651;53.154;17.916;2023-06-24T05:59:28;3.90;;;2.50;;
76725;SDS011;65651;53.154;17.916;2023-06-24T06:01:55;5.00;;;2.70;;
76725;SDS011;65651;53.154;17.916;2023-06-24T06:04:25;4.20;;;2.90;;
76725;SDS011;65651;53.154;17.916;2023-06-24T06:06:52;5.50;;;2.90;;
76725;SDS011;65651;53.154;17.916;2023-06-24T06:09:20;3.70;;;2.60;;
76725;SDS011;65651;53.154;17.916;2023-06-24T06:11:48;4.10;;;2.90;;
76725;SDS011;65651;53.154;17.916;2023-06-24T06:14:16;4.30;;;3.00;;
76725;SDS011;65651;53.154;17.916;2023-06-24T06:16:43;3.60;;;3.00;;
76725;SDS011;65651;53.154;17.916;2023-06-24T06:19:11;5.50;;;2.80;;
76725;SDS011;65651;53.154;17.916;2023-06-24T06:21:38;3.00;;;2.10;;
76725;SDS011;65651;53.154;17.916;2023-06-24T06:24:08;4.10;;;2.80;;
76725;SDS011;65651;53.154;17.916;2023-06-24T06:26:41;3.80;;;2.70;;
76725;SDS011;65651;53.154;17.916;2023-06-24T06:29:10;3.60;;;2.80;;
76725;SDS011;65651;53.154;17.916;2023-06-24T06:31:38;3.70;;;2.20;;
76725;SDS011;65651;53.154;17.916;2023-06-24T06:34:06;3.70;;;2.30;;
76725;SDS011;65651;53.154;17.916;2023-06-24T06:36:36;4.40;;;2.40;;
76725;SDS011;65651;53.154;17.916;2023-06-24T06:39:04;4.00;;;2.30;;
76725;SDS011;65651;53.154;17.916;2023-06-24T06:41:32;4.10;;;2.10;;
76725;SDS011;65651;53.154;17.916;2023-06-24T06:43:59;4.70;;;2.70;;
76725;SDS011;65651;53.154;17.916;2023-06-24T06:46:27;2.50;;;2.30;;
76725;SDS011;65651;53.154;17.916;2023-06-24T06:48:54;3.30;;;2.20;;
76725;SDS011;65651;53.154;17.916;2023-06-24T06:51:21;2.70;;;2.50;;
76725;SDS011;65651;53.154;17.916;2023-06-24T06:53:51;3.40;;;2.00;;
76725;SDS011;65651;53.154;17.916;2023-06-24T06:56:24;4.00;;;2.20;;
76725;SDS011;65651;53.154;17.916;2023-06-24T06:58:52;5.80;;;2.70;;
76725;SDS011;65651;53.154;17.916;2023-06-24T07:01:19;3.40;;;2.30;;
76725;SDS011;65651;53.154;17.916;2023-06-24T07:03:50;4.30;;;2.20;;
76725;SDS011;65651;53.154;17.916;2023-06-24T07:06:18;3.50;;;1.80;;
76725;SDS011;65651;53.154;17.916;2023-06-24T07:08:46;3.70;;;2.20;;
76725;SDS011;65651;53.154;17.916;2023-06-24T07:11:13;4.20;;;2.30;;
76725;SDS011;65651;53.154;17.916;2023-06-24T07:13:41;3.10;;;2.20;;
76725;SDS011;65651;53.154;17.916;2023-06-24T07:16:11;2.90;;;2.50;;
76725;SDS011;65651;53.154;17.916;2023-06-24T07:18:39;2.70;;;2.30;;
76725;SDS011;65651;53.154;17.916;2023-06-24T07:21:06;4.20;;;3.10;;
76725;SDS011;65651;53.154;17.916;2023-06-24T07:23:35;5.00;;;3.10;;
76725;SDS011;65651;53.154;17.916;2023-06-24T07:26:02;2.90;;;2.50;;
76725;SDS011;65651;53.154;17.916;2023-06-24T07:28:30;3.50;;;2.20;;
76725;SDS011;65651;53.154;17.916;2023-06-24T07:30:59;4.70;;;2.60;;
76725;SDS011;65651;53.154;17.916;2023-06-24T07:33:26;3.20;;;2.50;;
76725;SDS011;65651;53.154;17.916;2023-06-24T07:35:55;2.90;;;2.00;;
76725;SDS011;65651;53.154;17.916;2023-06-24T07:38:22;3.50;;;2.70;;
76725;SDS011;65651;53.154;17.916;2023-06-24T07:40:49;4.60;;;2.90;;
76725;SDS011;65651;53.154;17.916;2023-06-24T07:43:16;4.20;;;2.40;;
76725;SDS011;65651;53.154;17.916;2023-06-24T07:45:44;2.80;;;2.50;;
76725;SDS011;65651;53.154;17.916;2023-06-24T07:48:11;3.30;;;2.40;;
76725;SDS011;65651;53.154;17.916;2023-06-24T07:50:38;3.20;;;2.50;;
76725;SDS011;65651;53.154;17.916;2023-06-24T07:53:06;3.20;;;1.80;;
76725;SDS011;65651;53.154;17.916;2023-06-24T07:55:33;3.00;;;2.40;;
76725;SDS011;65651;53.154;17.916;2023-06-24T07:58:02;3.50;;;2.30;;
76725;SDS011;65651;53.154;17.916;2023-06-24T08:00:29;3.10;;;2.20;;
76725;SDS011;65651;53.154;17.916;2023-06-24T08:02:57;4.00;;;2.00;;
76725;SDS011;65651;53.154;17.916;2023-06-24T08:05:25;3.50;;;2.70;;
76725;SDS011;65651;53.154;17.916;2023-06-24T08:07:53;6.20;;;2.50;;
76725;SDS011;65651;53.154;17.916;2023-06-24T08:10:20;3.00;;;1.90;;
76725;SDS011;65651;53.154;17.916;2023-06-24T08:12:48;3.60;;;2.80;;
76725;SDS011;65651;53.154;17.916;2023-06-24T08:15:15;4.00;;;2.40;;
76725;SDS011;65651;53.154;17.916;2023-06-24T08:17:43;4.80;;;2.90;;
76725;SDS011;65651;53.154;17.916;2023-06-24T08:20:11;4.10;;;2.10;;
76725;SDS011;65651;53.154;17.916;2023-06-24T08:22:41;3.30;;;2.20;;
76725;SDS011;65651;53.154;17.916;2023-06-24T08:25:08;2.70;;;2.50;;
76725;SDS011;65651;53.154;17.916;2023-06-24T08:27:36;3.00;;;2.00;;
76725;SDS011;65651;53.154;17.916;2023-06-24T08:30:04;3.20;;;2.10;;
76725;SDS011;65651;53.154;17.916;2023-06-24T08:32:33;2.50;;;2.00;;
76725;SDS011;65651;53.154;17.916;2023-06-24T08:35:00;3.10;;;2.00;;
76725;SDS011;65651;53.154;17.916;2023-06-24T08:37:30;4.90;;;2.40;;
76725;SDS011;65651;53.154;17.916;2023-06-24T08:40:00;2.40;;;2.10;;
76725;SDS011;65651;53.154;17.916;2023-06-24T08:42:28;2.90;;;2.10;;
76725;SDS011;65651;53.154;17.916;2023-06-24T08:44:55;3.70;;;2.20;;
76725;SDS011;65651;53.154;17.916;2023-06-24T08:47:26;4.50;;;2.50;;
76725;SDS011;65651;53.154;17.916;2023-06-24T08:49:57;5.30;;;2.90;;
76725;SDS011;65651;53.154;17.916;2023-06-24T08:52:31;2.90;;;1.70;;
76725;SDS011;65651;53.154;17.916;2023-06-24T08:55:02;3.20;;;2.40;;
76725;SDS011;65651;53.154;17.916;2023-06-24T08:57:32;2.40;;;1.80;;
76725;SDS011;65651;53.154;17.916;2023-06-24T09:00:00;3.70;;;2.60;;
76725;SDS011;65651;53.154;17.916;2023-06-24T09:02:27;4.10;;;2.10;;
76725;SDS011;65651;53.154;17.916;2023-06-24T09:04:55;4.30;;;2.40;;
76725;SDS011;65651;53.154;17.916;2023-06-24T09:07:29;3.40;;;2.90;;
76725;SDS011;65651;53.154;17.916;2023-06-24T09:09:57;3.30;;;2.80;;
76725;SDS011;65651;53.154;17.916;2023-06-24T09:12:25;4.80;;;2.70;;
76725;SDS011;65651;53.154;17.916;2023-06-24T09:14:55;3.30;;;2.10;;
76725;SDS011;65651;53.154;17.916;2023-06-24T09:17:22;4.00;;;2.00;;
76725;SDS011;65651;53.154;17.916;2023-06-24T09:19:50;3.80;;;3.10;;
76725;SDS011;65651;53.154;17.916;2023-06-24T09:22:18;6.10;;;3.00;;
76725;SDS011;65651;53.154;17.916;2023-06-24T09:24:48;4.70;;;2.70;;
76725;SDS011;65651;53.154;17.916;2023-06-24T09:27:16;3.60;;;2.40;;
76725;SDS011;65651;53.154;17.916;2023-06-24T09:29:48;4.00;;;2.70;;
76725;SDS011;65651;53.154;17.916;2023-06-24T09:32:16;3.00;;;2.30;;
76725;SDS011;65651;53.154;17.916;2023-06-24T09:34:43;3.80;;;2.60;;
76725;SDS011;65651;53.154;17.916;2023-06-24T09:37:13;3.50;;;2.70;;
76725;SDS011;65651;53.154;17.916;2023-06-24T09:39:49;2.80;;;2.10;;
76725;SDS011;65651;53.154;17.916;2023-06-24T09:42:20;3.10;;;2.40;;
76725;SDS011;65651;53.154;17.916;2023-06-24T09:44:52;5.40;;;3.00;;
76725;SDS011;65651;53.154;17.916;2023-06-24T09:47:23;5.10;;;2.60;;
76725;SDS011;65651;53.154;17.916;2023-06-24T09:49:55;5.20;;;2.60;;
76725;SDS011;65651;53.154;17.916;2023-06-24T09:52:22;4.60;;;2.00;;
76725;SDS011;65651;53.154;17.916;2023-06-24T09:54:51;4.10;;;2.10;;
76725;SDS011;65651;53.154;17.916;2023-06-24T09:57:22;3.30;;;1.90;;
76725;SDS011;65651;53.154;17.916;2023-06-24T09:59:56;3.90;;;2.40;;
76725;SDS011;65651;53.154;17.916;2023-06-24T10:02:28;6.50;;;2.00;;
76725;SDS011;65651;53.154;17.916;2023-06-24T10:04:57;3.40;;;2.40;;
76725;SDS011;65651;53.154;17.916;2023-06-24T10:07:26;2.60;;;2.00;;
76725;SDS011;65651;53.154;17.916;2023-06-24T10:09:55;2.90;;;1.80;;
76725;SDS011;65651;53.154;17.916;2023-06-24T10:12:22;3.30;;;2.30;;
76725;SDS011;65651;53.154;17.916;2023-06-24T10:14:53;3.50;;;2.50;;
76725;SDS011;65651;53.154;17.916;2023-06-24T10:17:21;5.00;;;2.40;;
76725;SDS011;65651;53.154;17.916;2023-06-24T10:19:48;3.60;;;2.30;;
76725;SDS011;65651;53.154;17.916;2023-06-24T10:22:21;3.80;;;2.30;;
76725;SDS011;65651;53.154;17.916;2023-06-24T10:24:52;3.00;;;2.20;;
76725;SDS011;65651;53.154;17.916;2023-06-24T10:27:21;2.70;;;2.00;;
76725;SDS011;65651;53.154;17.916;2023-06-24T10:29:49;4.80;;;2.70;;
76725;SDS011;65651;53.154;17.916;2023-06-24T10:32:25;4.50;;;2.10;;
76725;SDS011;65651;53.154;17.916;2023-06-24T10:34:56;2.70;;;2.00;;
76725;SDS011;65651;53.154;17.916;2023-06-24T10:37:31;4.30;;;2.30;;
76725;SDS011;65651;53.154;17.916;2023-06-24T10:39:59;2.90;;;2.00;;
76725;SDS011;65651;53.154;17.916;2023-06-24T10:42:40;3.30;;;2.40;;
76725;SDS011;65651;53.154;17.916;2023-06-24T10:45:14;3.70;;;2.60;;
76725;SDS011;65651;53.154;17.916;2023-06-24T10:47:47;3.90;;;2.10;;
76725;SDS011;65651;53.154;17.916;2023-06-24T10:50:18;4.60;;;2.60;;
76725;SDS011;65651;53.154;17.916;2023-06-24T10:52:47;5.10;;;2.40;;
76725;SDS011;65651;53.154;17.916;2023-06-24T10:55:16;3.10;;;2.30;;
76725;SDS011;65651;53.154;17.916;2023-06-24T10:57:45;4.30;;;2.20;;
76725;SDS011;65651;53.154;17.916;2023-06-24T11:00:13;3.00;;;2.10;;
76725;SDS011;65651;53.154;17.916;2023-06-24T11:02:41;4.60;;;2.70;;
76725;SDS011;65651;53.154;17.916;2023-06-24T11:05:10;3.00;;;2.20;;
76725;SDS011;65651;53.154;17.916;2023-06-24T11:07:38;4.00;;;2.70;;
76725;SDS011;65651;53.154;17.916;2023-06-24T11:10:15;4.20;;;1.70;;
76725;SDS011;65651;53.154;17.916;2023-06-24T11:12:43;2.50;;;1.60;;
76725;SDS011;65651;53.154;17.916;2023-06-24T11:15:11;4.20;;;1.90;;
76725;SDS011;65651;53.154;17.916;2023-06-24T11:17:40;4.40;;;2.50;;
76725;SDS011;65651;53.154;17.916;2023-06-24T11:20:09;4.60;;;2.50;;
76725;SDS011;65651;53.154;17.916;2023-06-24T11:22:40;2.40;;;1.60;;
76725;SDS011;65651;53.154;17.916;2023-06-24T11:25:15;3.50;;;2.10;;
76725;SDS011;65651;53.154;17.916;2023-06-24T11:27:43;2.90;;;2.10;;
76725;SDS011;65651;53.154;17.916;2023-06-24T11:30:12;3.30;;;1.70;;
76725;SDS011;65651;53.154;17.916;2023-06-24T11:32:41;4.50;;;2.40;;
76725;SDS011;65651;53.154;17.916;2023-06-24T11:35:12;7.30;;;2.60;;
76725;SDS011;65651;53.154;17.916;2023-06-24T11:37:42;3.50;;;2.60;;
76725;SDS011;65651;53.154;17.916;2023-06-24T11:40:11;3.40;;;1.90;;
76725;SDS011;65651;53.154;17.916;2023-06-24T11:42:41;4.40;;;2.40;;
76725;SDS011;65651;53.154;17.916;2023-06-24T11:45:11;4.10;;;2.50;;
76725;SDS011;65651;53.154;17.916;2023-06-24T11:47:43;4.40;;;3.00;;
76725;SDS011;65651;53.154;17.916;2023-06-24T11:50:11;2.90;;;2.60;;
76725;SDS011;65651;53.154;17.916;2023-06-24T11:52:39;4.00;;;2.60;;
76725;SDS011;65651;53.154;17.916;2023-06-24T12:00:38;5.90;;;2.20;;
76725;SDS011;65651;53.154;17.916;2023-06-24T12:03:09;5.60;;;2.50;;
76725;SDS011;65651;53.154;17.916;2023-06-24T12:05:38;3.70;;;2.90;;
76725;SDS011;65651;53.154;17.916;2023-06-24T12:08:11;3.80;;;2.80;;
76725;SDS011;65651;53.154;17.916;2023-06-24T12:10:42;5.20;;;2.40;;
76725;SDS011;65651;53.154;17.916;2023-06-24T12:13:11;8.20;;;3.10;;
76725;SDS011;65651;53.154;17.916;2023-06-24T12:15:42;3.60;;;2.60;;
76725;SDS011;65651;53.154;17.916;2023-06-24T12:18:12;3.30;;;2.40;;
76725;SDS011;65651;53.154;17.916;2023-06-24T12:20:40;3.30;;;2.50;;
76725;SDS011;65651;53.154;17.916;2023-06-24T12:23:07;4.00;;;2.90;;
76725;SDS011;65651;53.154;17.916;2023-06-24T12:25:35;6.70;;;2.90;;
76725;SDS011;65651;53.154;17.916;2023-06-24T12:28:05;5.00;;;3.00;;
76725;SDS011;65651;53.154;17.916;2023-06-24T12:30:36;3.00;;;2.50;;
76725;SDS011;65651;53.154;17.916;2023-06-24T12:33:05;3.40;;;2.90;;
76725;SDS011;65651;53.154;17.916;2023-06-24T12:35:35;3.40;;;2.30;;
76725;SDS011;65651;53.154;17.916;2023-06-24T12:38:02;5.30;;;2.80;;
76725;SDS011;65651;53.154;17.916;2023-06-24T12:40:30;2.80;;;2.50;;
76725;SDS011;65651;53.154;17.916;2023-06-24T12:43:04;3.90;;;2.40;;
76725;SDS011;65651;53.154;17.916;2023-06-24T12:45:32;4.00;;;2.00;;
76725;SDS011;65651;53.154;17.916;2023-06-24T12:48:00;3.80;;;2.90;;
76725;SDS011;65651;53.154;17.916;2023-06-24T12:50:27;3.20;;;2.10;;
76725;SDS011;65651;53.154;17.916;2023-06-24T12:53:05;4.00;;;2.80;;
76725;SDS011;65651;53.154;17.916;2023-06-24T12:55:33;5.60;;;2.90;;
76725;SDS011;65651;53.154;17.916;2023-06-24T12:58:00;4.20;;;2.60;;
76725;SDS011;65651;53.154;17.916;2023-06-24T13:00:27;3.80;;;2.90;;
76725;SDS011;65651;53.154;17.916;2023-06-24T13:02:55;4.10;;;3.00;;
76725;SDS011;65651;53.154;17.916;2023-06-24T13:05:23;4.40;;;2.50;;
76725;SDS011;65651;53.154;17.916;2023-06-24T13:07:51;4.10;;;2.90;;
76725;SDS011;65651;53.154;17.916;2023-06-24T13:10:20;4.20;;;2.80;;
76725;SDS011;65651;53.154;17.916;2023-06-24T13:12:47;4.30;;;2.80;;
76725;SDS011;65651;53.154;17.916;2023-06-24T13:15:18;3.60;;;3.30;;
76725;SDS011;65651;53.154;17.916;2023-06-24T13:17:45;3.10;;;2.50;;
76725;SDS011;65651;53.154;17.916;2023-06-24T13:20:12;3.70;;;2.40;;
76725;SDS011;65651;53.154;17.916;2023-06-24T13:22:42;4.90;;;3.20;;
76725;SDS011;65651;53.154;17.916;2023-06-24T13:25:10;5.60;;;3.10;;
76725;SDS011;65651;53.154;17.916;2023-06-24T13:27:38;5.00;;;3.40;;
76725;SDS011;65651;53.154;17.916;2023-06-24T13:30:05;4.50;;;2.50;;
76725;SDS011;65651;53.154;17.916;2023-06-24T13:32:33;4.60;;;2.40;;
76725;SDS011;65651;53.154;17.916;2023-06-24T13:35:00;4.10;;;3.10;;
76725;SDS011;65651;53.154;17.916;2023-06-24T13:37:27;4.60;;;3.50;;
76725;SDS011;65651;53.154;17.916;2023-06-24T13:39:57;5.40;;;3.40;;
76725;SDS011;65651;53.154;17.916;2023-06-24T13:42:24;4.80;;;3.10;;
76725;SDS011;65651;53.154;17.916;2023-06-24T13:44:52;6.80;;;4.20;;
76725;SDS011;65651;53.154;17.916;2023-06-24T13:47:19;4.60;;;3.10;;
76725;SDS011;65651;53.154;17.916;2023-06-24T13:49:47;5.30;;;2.50;;
76725;SDS011;65651;53.154;17.916;2023-06-24T13:52:14;4.70;;;2.70;;
76725;SDS011;65651;53.154;17.916;2023-06-24T13:54:41;4.10;;;1.90;;
76725;SDS011;65651;53.154;17.916;2023-06-24T13:57:09;5.10;;;2.60;;
76725;SDS011;65651;53.154;17.916;2023-06-24T13:59:37;3.50;;;2.20;;
76725;SDS011;65651;53.154;17.916;2023-06-24T14:02:04;3.40;;;2.60;;
76725;SDS011;65651;53.154;17.916;2023-06-24T14:04:37;5.10;;;3.70;;
76725;SDS011;65651;53.154;17.916;2023-06-24T14:07:06;8.10;;;4.50;;
76725;SDS011;65651;53.154;17.916;2023-06-24T14:09:34;6.20;;;3.50;;
76725;SDS011;65651;53.154;17.916;2023-06-24T14:12:01;6.10;;;2.70;;
76725;SDS011;65651;53.154;17.916;2023-06-24T14:14:29;3.30;;;2.60;;
76725;SDS011;65651;53.154;17.916;2023-06-24T14:16:57;3.70;;;2.80;;
76725;SDS011;65651;53.154;17.916;2023-06-24T14:19:25;5.50;;;2.20;;
76725;SDS011;65651;53.154;17.916;2023-06-24T14:21:55;3.20;;;2.30;;
76725;SDS011;65651;53.154;17.916;2023-06-24T14:24:24;5.60;;;2.90;;
76725;SDS011;65651;53.154;17.916;2023-06-24T14:26:51;4.10;;;2.50;;
76725;SDS011;65651;53.154;17.916;2023-06-24T14:29:19;3.60;;;1.80;;
76725;SDS011;65651;53.154;17.916;2023-06-24T14:31:46;3.50;;;2.10;;
76725;SDS011;65651;53.154;17.916;2023-06-24T14:34:15;6.00;;;3.10;;
76725;SDS011;65651;53.154;17.916;2023-06-24T14:36:42;4.50;;;2.70;;
76725;SDS011;65651;53.154;17.916;2023-06-24T14:39:12;5.20;;;2.80;;
76725;SDS011;65651;53.154;17.916;2023-06-24T14:41:42;6.40;;;2.80;;
76725;SDS011;65651;53.154;17.916;2023-06-24T14:44:11;6.10;;;2.60;;
76725;SDS011;65651;53.154;17.916;2023-06-24T14:46:38;4.50;;;2.60;;
76725;SDS011;65651;53.154;17.916;2023-06-24T14:49:06;5.30;;;2.70;;
76725;SDS011;65651;53.154;17.916;2023-06-24T14:51:34;8.40;;;3.10;;
76725;SDS011;65651;53.154;17.916;2023-06-24T14:54:04;5.30;;;3.90;;
76725;SDS011;65651;53.154;17.916;2023-06-24T14:56:31;6.50;;;3.50;;
76725;SDS011;65651;53.154;17.916;2023-06-24T14:58:58;6.00;;;4.70;;
76725;SDS011;65651;53.154;17.916;2023-06-24T15:01:26;6.60;;;4.40;;
76725;SDS011;65651;53.154;17.916;2023-06-24T15:03:53;4.10;;;3.10;;
76725;SDS011;65651;53.154;17.916;2023-06-24T15:06:21;8.00;;;3.30;;
76725;SDS011;65651;53.154;17.916;2023-06-24T15:08:48;4.10;;;3.30;;